sensor_id;sensor_type;location;lat;lon;timestamp;pressure;altitude;pressure_sealevel;temperature;humidity
73105;BME280;61296;50.526;30.792;2023-05-22T00:11:24;99844.25;;;12.33;52.44
73105;BME280;61296;50.526;30.792;2023-05-22T00:26:44;99795.41;;;11.93;53.42
73105;BME280;61296;50.526;30.792;2023-05-22T00:42:03;99841.31;;;12.16;53.38
73105;BME280;61296;50.526;30.792;2023-05-22T00:57:22;99900.94;;;12.68;52.90
73105;BME280;61296;50.526;30.792;2023-05-22T01:44:18;99835.56;;;11.91;54.98
73105;BME280;61296;50.526;30.792;2023-05-22T01:59:46;99778.41;;;11.54;54.75
73105;BME280;61296;50.526;30.792;2023-05-22T02:15:07;99827.19;;;11.83;54.96
73105;BME280;61296;50.526;30.792;2023-05-22T02:30:27;99828.00;;;11.84;55.21
73105;BME280;61296;50.526;30.792;2023-05-22T02:45:47;99794.59;;;11.89;54.59
73105;BME280;61296;50.526;30.792;2023-05-22T03:01:07;99879.88;;;12.93;52.62
73105;BME280;61296;50.526;30.792;2023-05-22T03:16:27;99806.81;;;12.80;51.96
73105;BME280;61296;50.526;30.792;2023-05-22T03:31:46;99875.97;;;13.64;51.10
73105;BME280;61296;50.526;30.792;2023-05-22T03:47:07;99786.75;;;13.60;50.25
73105;BME280;61296;50.526;30.792;2023-05-22T04:02:29;99791.28;;;14.28;47.92
73105;BME280;61296;50.526;30.792;2023-05-22T04:17:49;99793.22;;;14.95;46.54
73105;BME280;61296;50.526;30.792;2023-05-22T04:33:08;99847.56;;;15.98;44.99
73105;BME280;61296;50.526;30.792;2023-05-22T04:48:28;99805.06;;;16.15;43.78
73105;BME280;61296;50.526;30.792;2023-05-22T05:03:48;99783.94;;;16.25;43.44
73105;BME280;61296;50.526;30.792;2023-05-22T05:19:07;99786.78;;;16.73;41.98
73105;BME280;61296;50.526;30.792;2023-05-22T05:34:27;99788.97;;;16.93;42.81
73105;BME280;61296;50.526;30.792;2023-05-22T05:49:57;99808.69;;;17.40;42.00
73105;BME280;61296;50.526;30.792;2023-05-22T06:05:18;99858.66;;;18.42;40.56
73105;BME280;61296;50.526;30.792;2023-05-22T06:20:39;99733.31;;;17.65;40.90
73105;BME280;61296;50.526;30.792;2023-05-22T06:36:05;99796.75;;;18.58;39.47
73105;BME280;61296;50.526;30.792;2023-05-22T06:51:32;99805.63;;;18.99;38.45
73105;BME280;61296;50.526;30.792;2023-05-22T07:06:59;99766.84;;;18.85;38.10
73105;BME280;61296;50.526;30.792;2023-05-22T07:22:20;99749.97;;;18.72;37.34
73105;BME280;61296;50.526;30.792;2023-05-22T07:37:41;99817.41;;;19.50;37.04
73105;BME280;61296;50.526;30.792;2023-05-22T07:53:04;99820.00;;;19.61;37.45
73105;BME280;61296;50.526;30.792;2023-05-22T08:25:58;99734.28;;;19.98;32.99
73105;BME280;61296;50.526;30.792;2023-05-22T08:41:27;99667.53;;;20.36;29.86
73105;BME280;61296;50.526;30.792;2023-05-22T08:56:48;99685.00;;;20.07;31.25
73105;BME280;61296;50.526;30.792;2023-05-22T09:12:30;99725.22;;;20.10;31.42
73105;BME280;61296;50.526;30.792;2023-05-22T09:27:49;99747.75;;;20.52;31.55
73105;BME280;61296;50.526;30.792;2023-05-22T09:43:09;99781.19;;;20.71;31.36
73105;BME280;61296;50.526;30.792;2023-05-22T09:58:30;99630.81;;;20.05;30.94
73105;BME280;61296;50.526;30.792;2023-05-22T10:13:58;99707.50;;;20.65;31.42
73105;BME280;61296;50.526;30.792;2023-05-22T10:29:34;99689.59;;;20.63;30.66
73105;BME280;61296;50.526;30.792;2023-05-22T10:44:54;99743.75;;;20.98;30.35
73105;BME280;61296;50.526;30.792;2023-05-22T11:00:15;99765.19;;;21.17;29.39
73105;BME280;61296;50.526;30.792;2023-05-22T11:16:01;99603.25;;;20.52;29.67
73105;BME280;61296;50.526;30.792;2023-05-22T11:31:36;99632.25;;;20.87;29.27
73105;BME280;61296;50.526;30.792;2023-05-22T11:46:56;99552.47;;;20.41;28.65
73105;BME280;61296;50.526;30.792;2023-05-22T12:02:17;99652.09;;;21.18;28.10
73105;BME280;61296;50.526;30.792;2023-05-22T12:17:36;99620.47;;;21.34;27.26
73105;BME280;61296;50.526;30.792;2023-05-22T12:32:56;99630.00;;;21.62;27.63
73105;BME280;61296;50.526;30.792;2023-05-22T12:48:17;99553.44;;;21.18;26.92
73105;BME280;61296;50.526;30.792;2023-05-22T13:03:37;99629.22;;;21.74;25.76
73105;BME280;61296;50.526;30.792;2023-05-22T13:18:57;99557.28;;;21.49;25.39
73105;BME280;61296;50.526;30.792;2023-05-22T13:34:16;99556.38;;;21.52;25.31
73105;BME280;61296;50.526;30.792;2023-05-22T13:49:36;99606.00;;;21.86;24.37
73105;BME280;61296;50.526;30.792;2023-05-22T14:04:55;99549.91;;;21.90;24.50
73105;BME280;61296;50.526;30.792;2023-05-22T14:20:14;99549.78;;;21.94;25.46
73105;BME280;61296;50.526;30.792;2023-05-22T14:35:37;99511.22;;;21.63;25.49
73105;BME280;61296;50.526;30.792;2023-05-22T14:50:56;99539.88;;;21.80;24.77
73105;BME280;61296;50.526;30.792;2023-05-22T15:06:19;99516.47;;;21.74;24.66
73105;BME280;61296;50.526;30.792;2023-05-22T15:21:39;99585.28;;;22.09;25.29
73105;BME280;61296;50.526;30.792;2023-05-22T15:37:02;99487.53;;;21.42;25.37
73105;BME280;61296;50.526;30.792;2023-05-22T15:52:22;99486.41;;;21.52;25.69
73105;BME280;61296;50.526;30.792;2023-05-22T16:07:49;99490.34;;;21.04;25.85
73105;BME280;61296;50.526;30.792;2023-05-22T16:23:17;99444.28;;;20.70;26.80
73105;BME280;61296;50.526;30.792;2023-05-22T16:38:40;99446.72;;;20.56;27.85
73105;BME280;61296;50.526;30.792;2023-05-22T16:54:00;99441.94;;;20.27;28.78
73105;BME280;61296;50.526;30.792;2023-05-22T17:09:23;99510.69;;;20.37;29.25
73105;BME280;61296;50.526;30.792;2023-05-22T17:24:42;99517.50;;;20.07;30.05
73105;BME280;61296;50.526;30.792;2023-05-22T17:40:12;99507.47;;;19.65;31.53
73105;BME280;61296;50.526;30.792;2023-05-22T17:55:33;99534.97;;;19.46;32.49
73105;BME280;61296;50.526;30.792;2023-05-22T18:26:50;99519.91;;;18.35;36.69
73105;BME280;61296;50.526;30.792;2023-05-22T18:42:10;99573.44;;;18.43;37.48
73105;BME280;61296;50.526;30.792;2023-05-22T18:57:29;99591.91;;;18.33;38.05
73105;BME280;61296;50.526;30.792;2023-05-22T19:12:49;99475.06;;;17.43;38.77
73105;BME280;61296;50.526;30.792;2023-05-22T19:28:10;99593.41;;;17.95;39.29
73105;BME280;61296;50.526;30.792;2023-05-22T19:43:29;99504.97;;;17.36;40.19
73105;BME280;61296;50.526;30.792;2023-05-22T19:58:49;99587.03;;;17.71;40.98
73105;BME280;61296;50.526;30.792;2023-05-22T20:14:08;99593.53;;;17.60;42.29
73105;BME280;61296;50.526;30.792;2023-05-22T20:29:28;99499.38;;;16.85;43.18
73105;BME280;61296;50.526;30.792;2023-05-22T20:44:48;99599.22;;;17.26;43.84
73105;BME280;61296;50.526;30.792;2023-05-22T21:00:07;99526.19;;;16.68;44.59
73105;BME280;61296;50.526;30.792;2023-05-22T21:15:29;99575.13;;;16.89;45.67
73105;BME280;61296;50.526;30.792;2023-05-22T21:30:48;99575.44;;;16.61;47.02
73105;BME280;61296;50.526;30.792;2023-05-22T21:46:08;99515.00;;;16.07;48.27
73105;BME280;61296;50.526;30.792;2023-05-22T22:01:28;99497.22;;;15.64;49.23
73105;BME280;61296;50.526;30.792;2023-05-22T22:16:47;99549.47;;;15.65;50.05
73105;BME280;61296;50.526;30.792;2023-05-22T22:32:08;99508.31;;;15.12;51.33
73105;BME280;61296;50.526;30.792;2023-05-22T22:47:27;99558.38;;;15.35;52.04
73105;BME280;61296;50.526;30.792;2023-05-22T23:02:47;99468.56;;;14.77;53.23
73105;BME280;61296;50.526;30.792;2023-05-22T23:18:06;99487.59;;;14.68;53.86
73105;BME280;61296;50.526;30.792;2023-05-22T23:33:29;99427.69;;;14.29;54.26
73105;BME280;61296;50.526;30.792;2023-05-22T23:48:48;99476.56;;;14.57;54.43
